createdAt,value
2018-03-11T00:00:56.297Z,27.30
2018-03-11T00:03:24.691Z,29.20
2018-03-11T00:05:53.148Z,23.93
2018-03-11T00:26:27.411Z,29.67
2018-03-11T00:28:55.676Z,32.97
2018-03-11T00:31:23.963Z,25.93
2018-03-11T00:33:52.197Z,29.77
2018-03-11T00:54:24.739Z,23.53
2018-03-11T00:56:52.973Z,26.33
2018-03-11T00:59:21.277Z,22.57
2018-03-11T01:01:49.535Z,26.63
2018-03-11T01:04:17.940Z,27.10
2018-03-11T01:24:49.711Z,22.07
2018-03-11T01:45:21.352Z,23.97
2018-03-11T02:05:53.834Z,22.23
2018-03-11T02:08:22.071Z,17.93
2018-03-11T02:10:50.316Z,22.00
2018-03-11T02:13:19.683Z,21.53
2018-03-11T02:15:47.986Z,18.00
2018-03-11T02:18:17.002Z,25.07
2018-03-11T02:20:46.100Z,20.37
2018-03-11T02:23:14.330Z,25.33
2018-03-11T02:25:42.611Z,24.77
2018-03-11T02:28:10.912Z,26.20
2018-03-11T02:30:39.218Z,25.30
2018-03-11T02:33:07.493Z,29.57
2018-03-11T02:35:35.784Z,22.50
2018-03-11T02:38:04.832Z,25.73
2018-03-11T02:40:33.132Z,23.40
2018-03-11T03:01:04.196Z,24.97
2018-03-11T03:03:32.434Z,23.10
2018-03-11T03:06:00.707Z,28.43
2018-03-11T03:08:29.136Z,22.07
2018-03-11T03:10:57.412Z,26.17
2018-03-11T03:13:25.746Z,20.77
2018-03-11T03:15:54.904Z,24.53
2018-03-11T03:36:23.519Z,23.13
2018-03-11T03:38:51.949Z,28.70
2018-03-11T03:59:24.571Z,28.63
2018-03-11T04:01:52.980Z,26.27
2018-03-11T04:04:21.214Z,26.47
2018-03-11T04:06:49.522Z,26.67
2018-03-11T04:09:17.832Z,29.43
2018-03-11T04:11:46.075Z,24.57
2018-03-11T04:14:14.314Z,30.03
2018-03-11T04:16:42.892Z,25.57
2018-03-11T04:19:11.165Z,31.63
2018-03-11T04:21:39.397Z,22.33
2018-03-11T04:42:10.248Z,28.80
2018-03-11T04:44:38.592Z,25.03
2018-03-11T04:47:06.888Z,31.77
2018-03-11T04:49:36.049Z,24.40
2018-03-11T04:52:04.275Z,23.30
2018-03-11T04:54:32.548Z,25.93
2018-03-11T04:57:01.695Z,20.90
2018-03-11T04:59:29.960Z,26.67
2018-03-11T05:01:58.211Z,22.33
2018-03-11T05:04:26.571Z,25.40
2018-03-11T05:06:54.886Z,21.60
2018-03-11T05:09:23.221Z,20.60
2018-03-11T05:29:54.982Z,30.37
2018-03-11T05:32:23.264Z,36.50
2018-03-11T05:34:51.541Z,31.53
2018-03-11T05:37:20.077Z,28.67
2018-03-11T05:39:49.181Z,25.63
2018-03-11T05:42:18.213Z,25.73
2018-03-11T05:44:46.591Z,23.63
2018-03-11T05:47:14.876Z,26.67
2018-03-11T05:49:43.106Z,21.33
2018-03-11T06:10:15.112Z,25.50
2018-03-11T06:12:44.148Z,20.33
2018-03-11T06:15:12.424Z,19.07
2018-03-11T06:17:40.925Z,18.03
2018-03-11T06:20:09.166Z,21.93
2018-03-11T06:22:37.489Z,18.97
2018-03-11T06:25:05.786Z,21.73
2018-03-11T06:27:34.027Z,18.67
2018-03-11T06:30:02.302Z,21.50
2018-03-11T06:32:30.680Z,18.77
2018-03-11T06:34:59.708Z,20.27
2018-03-11T06:37:27.984Z,17.63
2018-03-11T06:39:56.241Z,20.80
2018-03-11T06:42:24.507Z,17.47
2018-03-11T06:44:52.788Z,22.57
2018-03-11T06:47:21.519Z,19.33
2018-03-11T06:49:49.795Z,21.93
2018-03-11T06:52:18.067Z,19.23
2018-03-11T06:54:46.392Z,22.83
2018-03-11T06:57:15.432Z,21.37
2018-03-11T06:59:43.703Z,18.73
2018-03-11T07:20:13.888Z,24.93
2018-03-11T07:22:42.122Z,21.03
2018-03-11T07:25:10.429Z,25.77
2018-03-11T07:27:38.809Z,21.17
2018-03-11T07:30:07.070Z,24.20
2018-03-11T07:32:35.319Z,22.23
2018-03-11T07:53:07.781Z,25.63
2018-03-11T08:13:37.801Z,24.50
2018-03-11T08:16:06.071Z,20.70
2018-03-11T08:18:34.379Z,22.10
2018-03-11T08:21:02.613Z,24.53
2018-03-11T08:23:31.055Z,21.40
2018-03-11T08:25:59.332Z,22.60
2018-03-11T08:28:28.370Z,25.73
2018-03-11T08:30:56.741Z,21.07
2018-03-11T08:33:24.996Z,23.10
2018-03-11T08:35:53.230Z,22.33
2018-03-11T08:56:26.208Z,20.87
2018-03-11T08:58:54.475Z,25.93
2018-03-11T09:01:22.740Z,20.90
2018-03-11T09:21:52.652Z,21.10
2018-03-11T09:24:20.974Z,23.40
2018-03-11T09:26:49.252Z,20.97
2018-03-11T09:29:17.520Z,22.97
2018-03-11T09:31:45.808Z,19.97
2018-03-11T09:34:14.104Z,21.17
2018-03-11T09:36:42.446Z,22.77
2018-03-11T09:57:21.949Z,15.10
2018-03-11T10:17:52.401Z,15.70
2018-03-11T10:38:22.665Z,11.77
2018-03-11T10:58:57.223Z,9.30
2018-03-11T11:01:31.084Z,12.13
2018-03-11T11:04:02.531Z,9.40
2018-03-11T11:06:30.800Z,11.33
2018-03-11T11:27:02.479Z,22.77
2018-03-11T11:29:30.733Z,27.57
2018-03-11T11:31:59.021Z,25.40
2018-03-11T11:34:27.572Z,24.03
2018-03-11T11:36:56.629Z,23.87
2018-03-11T11:57:26.978Z,15.43
2018-03-11T11:59:55.260Z,14.77
2018-03-11T12:02:23.499Z,12.60
2018-03-11T12:22:55.912Z,17.27
2018-03-11T12:25:24.151Z,19.67
2018-03-11T12:27:52.437Z,20.67
2018-03-11T12:48:26.519Z,20.97
2018-03-11T12:50:54.791Z,21.33
2018-03-11T12:53:23.067Z,18.03
2018-03-11T12:55:51.345Z,18.67
2018-03-11T13:16:21.595Z,18.67
2018-03-11T13:18:50.124Z,17.63
2018-03-11T13:21:18.399Z,18.30
2018-03-11T13:23:46.675Z,18.67
2018-03-11T13:26:14.956Z,19.40
2018-03-11T13:28:48.705Z,18.23
2018-03-11T13:31:17.032Z,19.20
2018-03-11T13:52:02.396Z,18.13
2018-03-11T13:54:30.699Z,17.67
2018-03-11T13:57:10.880Z,15.60
2018-03-11T13:59:39.907Z,19.50
2018-03-11T14:02:08.200Z,20.75
2018-03-11T14:04:36.479Z,15.57
2018-03-11T14:07:04.782Z,19.63
2018-03-11T14:09:33.024Z,16.40
2018-03-11T14:12:01.312Z,19.53
2018-03-11T14:32:32.572Z,17.03
2018-03-11T14:35:00.901Z,19.57
2018-03-11T14:37:29.246Z,18.40
2018-03-11T14:58:00.413Z,17.37
2018-03-11T15:00:28.700Z,20.57
2018-03-11T15:02:56.978Z,17.80
2018-03-11T15:05:25.285Z,20.73
2018-03-11T15:07:53.547Z,17.00
2018-03-11T15:28:24.170Z,17.90
2018-03-11T15:30:53.241Z,17.33
2018-03-11T15:33:21.602Z,15.70
2018-03-11T15:53:53.043Z,18.97
2018-03-11T16:14:24.484Z,21.23
2018-03-11T16:34:55.648Z,21.20
2018-03-11T16:37:23.924Z,17.07
2018-03-11T16:39:52.167Z,19.77
2018-03-11T17:00:21.877Z,19.07
2018-03-11T17:02:50.123Z,19.47
2018-03-11T17:05:19.194Z,19.80
2018-03-11T17:07:47.484Z,22.40
2018-03-11T17:10:15.800Z,20.97
2018-03-11T17:12:44.849Z,19.17
2018-03-11T17:33:14.919Z,17.27
2018-03-11T17:35:43.964Z,19.77
2018-03-11T17:38:12.270Z,19.93
2018-03-11T17:40:40.651Z,19.60
2018-03-11T17:43:08.916Z,18.57
2018-03-11T18:03:41.240Z,20.53
2018-03-11T18:06:09.536Z,17.63
2018-03-11T18:26:42.280Z,22.50
2018-03-11T18:29:10.585Z,21.20
2018-03-11T18:49:41.206Z,20.50
2018-03-11T19:10:14.480Z,19.70
2018-03-11T19:12:42.783Z,20.87
2018-03-11T19:33:14.352Z,19.43
2018-03-11T19:53:45.300Z,18.60
2018-03-11T20:14:17.474Z,21.47
2018-03-11T20:16:45.980Z,18.73
2018-03-11T20:37:17.024Z,17.77
2018-03-11T20:57:49.615Z,16.07
2018-03-11T21:00:17.936Z,18.10
2018-03-11T21:02:46.965Z,14.83
2018-03-11T21:05:15.298Z,19.00
2018-03-11T21:07:43.668Z,17.50
2018-03-11T21:10:11.947Z,17.63
2018-03-11T21:12:40.460Z,17.37
2018-03-11T21:15:08.748Z,20.33
2018-03-11T21:17:37.746Z,16.47
2018-03-11T21:20:06.025Z,18.30
2018-03-11T21:22:35.059Z,15.57
2018-03-11T21:25:03.338Z,17.23
2018-03-11T21:27:31.649Z,17.83
2018-03-11T21:29:59.908Z,15.60
2018-03-11T21:32:28.175Z,17.53
2018-03-11T21:34:56.508Z,14.93
2018-03-11T21:37:24.763Z,17.03
2018-03-11T21:39:53.040Z,15.33
2018-03-11T21:42:21.334Z,17.17
2018-03-11T21:44:49.599Z,17.80
2018-03-11T21:47:17.879Z,17.97
2018-03-11T21:49:46.152Z,14.30
2018-03-11T21:52:14.648Z,16.23
2018-03-11T21:54:42.949Z,15.57
2018-03-11T21:57:11.272Z,21.00
2018-03-11T21:59:39.532Z,21.57
2018-03-11T22:02:08.564Z,23.47
2018-03-11T22:04:36.868Z,23.03
2018-03-11T22:07:05.107Z,20.87
2018-03-11T22:27:36.509Z,19.93
2018-03-11T22:30:04.745Z,18.90
2018-03-11T22:50:37.167Z,18.73
2018-03-11T22:53:05.410Z,20.87
2018-03-11T23:13:37.561Z,20.80
2018-03-11T23:16:05.821Z,18.97
2018-03-11T23:18:45.861Z,22.10
2018-03-11T23:39:17.513Z,21.37
2018-03-11T23:41:46.642Z,18.13
2018-03-11T23:44:14.952Z,21.53
2018-03-11T23:46:43.207Z,17.37
2018-03-11T23:49:11.587Z,20.63
